createdAt,value
2019-02-20T00:00:12.972Z,101273.70
2019-02-20T00:02:41.460Z,101268.75
2019-02-20T00:05:09.892Z,101277.63
2019-02-20T00:07:38.357Z,101267.16
2019-02-20T00:10:07.327Z,101275.38
2019-02-20T00:12:36.028Z,101277.83
2019-02-20T00:15:05.801Z,101278.73
2019-02-20T00:17:34.234Z,101281.47
2019-02-20T00:20:02.723Z,101286.02
2019-02-20T00:22:39.798Z,101286.84
2019-02-20T00:25:01.355Z,101289.42
2019-02-20T00:27:29.802Z,101293.27
2019-02-20T00:29:58.195Z,101289.99
2019-02-20T00:32:26.619Z,101290.41
2019-02-20T00:34:55.297Z,101288.08
2019-02-20T00:37:23.713Z,101289.36
2019-02-20T00:39:52.188Z,101287.59
2019-02-20T00:42:20.714Z,101286.84
2019-02-20T00:44:56.499Z,101293.05
2019-02-20T00:47:38.352Z,101286.27
2019-02-20T00:50:06.889Z,101290.11
2019-02-20T00:52:36.886Z,101293.28
2019-02-20T00:55:07.011Z,101294.73
2019-02-20T00:57:35.460Z,101300.09
2019-02-20T01:00:06.060Z,101295.70
2019-02-20T01:02:34.725Z,101293.77
2019-02-20T01:05:03.162Z,101295.00
2019-02-20T01:07:31.903Z,101295.84
2019-02-20T01:10:00.593Z,101290.76
2019-02-20T01:12:28.979Z,101292.70
2019-02-20T01:14:57.429Z,101298.63
2019-02-20T01:17:26.171Z,101300.09
2019-02-20T01:19:54.611Z,101307.00
2019-02-20T01:22:23.100Z,101304.78
2019-02-20T01:24:51.553Z,101304.79
2019-02-20T01:27:19.996Z,101308.74
2019-02-20T01:29:48.453Z,101304.90
2019-02-20T01:32:16.917Z,101307.42
2019-02-20T01:34:45.331Z,101301.22
2019-02-20T01:37:13.756Z,101295.70
2019-02-20T01:39:42.170Z,101306.45
2019-02-20T01:42:10.613Z,101289.84
2019-02-20T01:44:39.168Z,101296.34
2019-02-20T01:47:07.689Z,101292.58
2019-02-20T01:49:36.443Z,101282.78
2019-02-20T01:52:04.915Z,101274.55
2019-02-20T01:54:33.593Z,101276.52
2019-02-20T01:57:01.918Z,101285.72
2019-02-20T01:59:30.623Z,101286.78
2019-02-20T02:01:59.171Z,101289.35
2019-02-20T02:04:27.542Z,101298.56
2019-02-20T02:06:56.001Z,101301.14
2019-02-20T02:09:24.447Z,101296.19
2019-02-20T02:11:52.994Z,101296.40
2019-02-20T02:14:21.428Z,101291.15
2019-02-20T02:16:49.908Z,101294.06
2019-02-20T02:19:18.283Z,101290.17
2019-02-20T02:21:46.687Z,101295.56
2019-02-20T02:24:15.135Z,101293.80
2019-02-20T02:26:43.512Z,101297.45
2019-02-20T02:29:11.994Z,101289.15
2019-02-20T02:31:40.434Z,101283.19
2019-02-20T02:34:08.890Z,101293.18
2019-02-20T02:36:37.298Z,101299.76
2019-02-20T02:39:06.280Z,101291.66
2019-02-20T02:41:34.725Z,101294.39
2019-02-20T02:44:03.224Z,101294.58
2019-02-20T02:46:31.720Z,101298.15
2019-02-20T02:49:00.107Z,101303.86
2019-02-20T02:51:28.520Z,101299.89
2019-02-20T02:53:56.884Z,101310.72
2019-02-20T02:56:25.628Z,101305.55
2019-02-20T02:58:54.198Z,101305.67
2019-02-20T03:01:22.843Z,101308.00
2019-02-20T03:03:51.233Z,101312.53
2019-02-20T03:06:19.693Z,101306.88
2019-02-20T03:08:48.230Z,101308.61
2019-02-20T03:11:16.670Z,101309.53
2019-02-20T03:13:46.918Z,101303.57
2019-02-20T03:16:15.338Z,101302.25
2019-02-20T03:18:43.831Z,101297.95
2019-02-20T03:21:12.196Z,101305.55
2019-02-20T03:23:40.760Z,101311.60
2019-02-20T03:26:09.142Z,101307.50
2019-02-20T03:28:37.549Z,101310.50
2019-02-20T03:31:05.948Z,101317.61
2019-02-20T03:33:34.742Z,101310.14
2019-02-20T03:36:03.177Z,101315.58
2019-02-20T03:38:31.904Z,101315.71
2019-02-20T03:41:00.334Z,101324.38
2019-02-20T03:43:28.809Z,101328.06
2019-02-20T03:45:57.224Z,101326.16
2019-02-20T03:48:25.890Z,101339.25
2019-02-20T03:50:54.340Z,101340.02
2019-02-20T03:53:22.551Z,101333.04
2019-02-20T03:55:51.200Z,101337.92
2019-02-20T03:58:19.919Z,101332.17
2019-02-20T04:00:48.399Z,101339.38
2019-02-20T04:03:16.803Z,101340.12
2019-02-20T04:05:45.471Z,101336.08
2019-02-20T04:08:13.860Z,101334.55
2019-02-20T04:10:43.906Z,101334.07
2019-02-20T04:13:12.404Z,101338.54
2019-02-20T04:15:41.007Z,101334.91
2019-02-20T04:18:10.869Z,101335.27
2019-02-20T04:20:39.412Z,101344.62
2019-02-20T04:23:08.070Z,101341.70
2019-02-20T04:25:36.676Z,101337.63
2019-02-20T04:28:05.439Z,101351.17
2019-02-20T04:30:34.144Z,101349.20
2019-02-20T04:33:02.630Z,101350.11
2019-02-20T04:35:31.075Z,101345.52
2019-02-20T04:37:59.526Z,101339.31
2019-02-20T04:40:27.960Z,101347.20
2019-02-20T04:42:58.478Z,101337.72
2019-02-20T04:45:26.590Z,101347.14
2019-02-20T04:47:55.031Z,101352.72
2019-02-20T04:50:23.467Z,101353.14
2019-02-20T04:52:52.194Z,101358.17
2019-02-20T04:55:20.595Z,101354.34
2019-02-20T04:57:52.155Z,101362.16
2019-02-20T05:00:20.522Z,101364.60
2019-02-20T05:02:49.214Z,101355.04
2019-02-20T05:05:17.726Z,101347.08
2019-02-20T05:07:46.192Z,101346.95
2019-02-20T05:10:14.950Z,101353.58
2019-02-20T05:12:43.367Z,101355.09
2019-02-20T05:15:11.912Z,101360.14
2019-02-20T05:17:40.431Z,101358.48
2019-02-20T05:20:09.697Z,101353.36
2019-02-20T05:22:38.108Z,101364.67
2019-02-20T05:25:06.519Z,101366.98
2019-02-20T05:27:34.929Z,101355.34
2019-02-20T05:30:03.680Z,101357.34
2019-02-20T05:32:32.401Z,101357.12
2019-02-20T05:35:01.056Z,101363.92
2019-02-20T05:37:29.689Z,101364.59
2019-02-20T05:39:58.122Z,101357.83
2019-02-20T05:42:26.880Z,101364.75
2019-02-20T05:44:55.415Z,101364.10
2019-02-20T05:47:23.755Z,101369.09
2019-02-20T05:49:52.231Z,101373.48
2019-02-20T05:52:20.589Z,101374.31
2019-02-20T05:54:49.278Z,101382.41
2019-02-20T05:57:17.637Z,101388.76
2019-02-20T05:59:46.101Z,101387.08
2019-02-20T06:02:14.631Z,101390.93
2019-02-20T06:04:43.167Z,101389.17
2019-02-20T06:07:11.905Z,101391.56
2019-02-20T06:09:40.782Z,101385.16
2019-02-20T06:12:09.467Z,101389.86
2019-02-20T06:14:37.958Z,101388.41
2019-02-20T06:17:06.413Z,101395.52
2019-02-20T06:19:34.787Z,101398.80
2019-02-20T06:22:03.307Z,101396.72
2019-02-20T06:24:31.811Z,101393.64
2019-02-20T06:27:00.224Z,101404.55
2019-02-20T06:29:28.648Z,101400.98
2019-02-20T06:31:57.125Z,101412.36
2019-02-20T06:34:25.794Z,101412.23
2019-02-20T06:36:54.168Z,101414.45
2019-02-20T06:39:22.610Z,101415.02
2019-02-20T06:41:51.017Z,101414.94
2019-02-20T06:44:19.373Z,101421.39
2019-02-20T06:46:47.755Z,101415.72
2019-02-20T06:49:16.298Z,101421.59
2019-02-20T06:51:44.654Z,101421.45
2019-02-20T06:54:13.087Z,101426.95
2019-02-20T06:56:41.980Z,101435.21
2019-02-20T06:59:10.442Z,101432.62
2019-02-20T07:01:38.961Z,101437.08
2019-02-20T07:04:07.348Z,101441.70
2019-02-20T07:06:47.953Z,101438.97
2019-02-20T07:09:38.619Z,101444.86
2019-02-20T07:12:18.759Z,101451.28
2019-02-20T07:14:50.348Z,101440.15
2019-02-20T07:17:44.163Z,101441.14
2019-02-20T07:20:33.415Z,101446.47
2019-02-20T07:23:23.940Z,101461.77
2019-02-20T07:25:58.181Z,101473.64
2019-02-20T07:28:44.756Z,101476.48
2019-02-20T07:31:13.237Z,101483.89
2019-02-20T07:33:41.609Z,101485.64
2019-02-20T07:36:10.054Z,101490.47
2019-02-20T07:38:38.512Z,101492.14
2019-02-20T07:41:07.298Z,101495.44
2019-02-20T07:43:35.967Z,101499.86
2019-02-20T07:46:04.391Z,101504.16
2019-02-20T07:48:32.796Z,101502.41
2019-02-20T07:51:01.372Z,101503.74
2019-02-20T07:53:29.763Z,101507.23
2019-02-20T07:55:58.501Z,101511.63
2019-02-20T07:58:26.884Z,101513.38
2019-02-20T08:00:55.250Z,101516.39
2019-02-20T08:03:23.735Z,101522.67
2019-02-20T08:05:52.209Z,101529.76
2019-02-20T08:08:20.906Z,101528.69
2019-02-20T08:10:49.414Z,101530.24
2019-02-20T08:13:18.145Z,101527.95
2019-02-20T08:15:46.579Z,101529.41
2019-02-20T08:18:14.998Z,101532.73
2019-02-20T08:20:43.453Z,101532.33
2019-02-20T08:23:11.861Z,101533.30
2019-02-20T08:25:40.249Z,101538.42
2019-02-20T08:28:08.713Z,101543.19
2019-02-20T08:30:37.117Z,101534.00
2019-02-20T08:33:05.736Z,101538.40
2019-02-20T08:35:34.262Z,101539.53
2019-02-20T08:38:02.599Z,101547.20
2019-02-20T08:40:31.234Z,101552.22
2019-02-20T08:42:59.873Z,101557.84
2019-02-20T08:45:28.610Z,101559.06
2019-02-20T08:47:57.001Z,101565.27
2019-02-20T08:50:25.476Z,101556.54
2019-02-20T08:52:54.001Z,101564.03
2019-02-20T08:55:31.566Z,101572.27
2019-02-20T08:57:52.994Z,101584.42
2019-02-20T09:00:21.470Z,101584.72
2019-02-20T09:02:50.275Z,101591.44
2019-02-20T09:05:18.716Z,101581.30
2019-02-20T09:07:47.191Z,101585.28
2019-02-20T09:10:17.378Z,101596.33
2019-02-20T09:12:46.585Z,101599.03
2019-02-20T09:15:15.047Z,101597.52
2019-02-20T09:17:43.462Z,101605.95
2019-02-20T09:20:12.624Z,101611.30
2019-02-20T09:22:41.032Z,101611.97
2019-02-20T09:25:19.180Z,101618.70
2019-02-20T09:27:41.167Z,101612.14
2019-02-20T09:30:12.591Z,101615.72
2019-02-20T09:32:41.021Z,101614.86
2019-02-20T09:35:09.583Z,101622.48
2019-02-20T09:37:38.005Z,101623.47
2019-02-20T09:40:12.346Z,101629.25
2019-02-20T09:42:41.066Z,101622.99
2019-02-20T09:45:09.806Z,101627.22
2019-02-20T09:47:38.263Z,101627.13
2019-02-20T09:50:08.302Z,101619.95
2019-02-20T09:52:37.026Z,101628.58
2019-02-20T09:55:08.372Z,101632.33
2019-02-20T09:57:37.184Z,101634.75
2019-02-20T10:00:11.023Z,101632.19
2019-02-20T10:02:39.401Z,101637.66
2019-02-20T10:05:09.757Z,101634.08
2019-02-20T10:07:38.310Z,101645.27
2019-02-20T10:10:10.842Z,101643.54
2019-02-20T10:12:39.326Z,101642.14
2019-02-20T10:15:10.849Z,101636.53
2019-02-20T10:17:39.444Z,101637.75
2019-02-20T10:20:09.746Z,101627.88
2019-02-20T10:22:38.219Z,101636.33
2019-02-20T10:25:13.763Z,101640.98
2019-02-20T10:27:43.230Z,101650.22
2019-02-20T10:30:17.391Z,101653.15
2019-02-20T10:32:45.993Z,101658.08
2019-02-20T10:35:14.508Z,101664.34
2019-02-20T10:37:42.879Z,101662.52
2019-02-20T10:40:11.819Z,101659.53
2019-02-20T10:42:40.353Z,101663.38
2019-02-20T10:45:12.923Z,101661.31
2019-02-20T10:47:41.376Z,101658.92
2019-02-20T10:50:11.728Z,101654.45
2019-02-20T10:52:40.088Z,101655.38
2019-02-20T10:55:09.547Z,101661.26
2019-02-20T10:57:38.229Z,101656.45
2019-02-20T11:00:11.427Z,101654.34
2019-02-20T11:02:39.953Z,101664.09
2019-02-20T11:05:08.480Z,101659.05
2019-02-20T11:07:37.044Z,101661.23
2019-02-20T11:10:07.493Z,101658.33
2019-02-20T11:12:35.982Z,101653.63
2019-02-20T11:15:05.438Z,101660.94
2019-02-20T11:17:33.884Z,101655.11
2019-02-20T11:20:02.353Z,101653.22
2019-02-20T11:22:32.112Z,101653.84
2019-02-20T11:25:00.880Z,101658.83
2019-02-20T11:27:29.635Z,101659.46
2019-02-20T11:29:58.377Z,101653.72
2019-02-20T11:32:26.919Z,101653.87
2019-02-20T11:34:55.332Z,101643.11
2019-02-20T11:37:24.011Z,101641.80
2019-02-20T11:39:53.995Z,101647.45
2019-02-20T11:42:23.009Z,101651.41
2019-02-20T11:44:51.712Z,101649.91
2019-02-20T11:47:20.281Z,101646.37
2019-02-20T11:49:49.094Z,101654.55
2019-02-20T11:52:18.518Z,101649.14
2019-02-20T11:54:47.236Z,101656.61
2019-02-20T11:57:15.700Z,101650.66
2019-02-20T11:59:44.400Z,101648.48
2019-02-20T12:02:12.862Z,101653.98
2019-02-20T12:04:41.337Z,101642.84
2019-02-20T12:07:09.729Z,101644.21
2019-02-20T12:09:38.179Z,101642.35
2019-02-20T12:12:06.610Z,101640.47
2019-02-20T12:14:35.088Z,101636.88
2019-02-20T12:17:03.975Z,101633.56
2019-02-20T12:19:32.488Z,101634.61
2019-02-20T12:22:00.950Z,101637.06
2019-02-20T12:24:29.420Z,101638.48
2019-02-20T12:26:57.874Z,101639.38
2019-02-20T12:29:26.629Z,101643.88
2019-02-20T12:31:55.071Z,101643.73
2019-02-20T12:34:23.555Z,101656.18
2019-02-20T12:36:51.936Z,101647.94
2019-02-20T12:39:20.377Z,101653.44
2019-02-20T12:41:48.800Z,101635.34
2019-02-20T12:44:17.534Z,101637.88
2019-02-20T12:46:47.737Z,101637.13
2019-02-20T12:49:17.909Z,101644.00
2019-02-20T12:51:46.324Z,101642.11
2019-02-20T12:54:14.698Z,101646.41
2019-02-20T12:56:44.172Z,101647.09
2019-02-20T12:59:12.813Z,101649.00
2019-02-20T13:01:41.361Z,101646.37
2019-02-20T13:04:09.986Z,101645.59
2019-02-20T13:06:38.723Z,101646.28
2019-02-20T13:09:09.103Z,101640.61
2019-02-20T13:11:37.671Z,101653.16
2019-02-20T13:14:06.193Z,101653.37
2019-02-20T13:16:34.669Z,101647.09
2019-02-20T13:19:03.148Z,101652.37
2019-02-20T13:21:31.611Z,101653.87
2019-02-20T13:24:00.025Z,101647.00
2019-02-20T13:26:28.463Z,101648.33
2019-02-20T13:28:57.022Z,101645.42
2019-02-20T13:31:25.495Z,101650.88
2019-02-20T13:33:53.895Z,101650.95
2019-02-20T13:36:22.413Z,101653.73
2019-02-20T13:38:50.879Z,101657.14
2019-02-20T13:41:19.676Z,101655.44
2019-02-20T13:43:51.098Z,101650.09
2019-02-20T13:46:19.660Z,101645.12
2019-02-20T13:48:48.267Z,101645.91
2019-02-20T13:51:17.743Z,101660.68
2019-02-20T13:53:46.744Z,101647.39
2019-02-20T13:56:15.271Z,101648.67
2019-02-20T13:58:43.747Z,101645.64
2019-02-20T14:01:12.543Z,101644.73
2019-02-20T14:03:41.787Z,101647.70
2019-02-20T14:06:10.556Z,101649.15
2019-02-20T14:08:39.407Z,101649.33
2019-02-20T14:11:08.646Z,101648.44
2019-02-20T14:13:37.099Z,101648.14
2019-02-20T14:16:05.557Z,101656.06
2019-02-20T14:18:34.056Z,101655.26
2019-02-20T14:21:02.701Z,101648.23
2019-02-20T14:23:31.060Z,101651.09
2019-02-20T14:26:00.784Z,101652.52
2019-02-20T14:28:29.316Z,101645.70
2019-02-20T14:30:57.789Z,101649.38
2019-02-20T14:33:26.158Z,101645.02
2019-02-20T14:35:54.633Z,101645.78
2019-02-20T14:38:23.093Z,101648.88
2019-02-20T14:40:51.556Z,101655.99
2019-02-20T14:43:20.015Z,101652.74
2019-02-20T14:45:48.411Z,101647.91
2019-02-20T14:48:16.923Z,101644.93
2019-02-20T14:50:45.317Z,101649.41
2019-02-20T14:53:13.830Z,101652.38
2019-02-20T14:55:42.230Z,101658.91
2019-02-20T14:58:10.788Z,101658.67
2019-02-20T15:00:39.594Z,101667.14
2019-02-20T15:03:08.074Z,101667.22
2019-02-20T15:05:36.511Z,101667.50
2019-02-20T15:08:05.603Z,101665.72
2019-02-20T15:10:34.055Z,101662.30
2019-02-20T15:13:02.586Z,101663.61
2019-02-20T15:15:31.046Z,101663.41
2019-02-20T15:17:59.845Z,101672.34
2019-02-20T15:20:28.370Z,101676.17
2019-02-20T15:22:58.386Z,101676.52
2019-02-20T15:25:26.983Z,101679.19
2019-02-20T15:27:55.506Z,101677.16
2019-02-20T15:30:23.974Z,101677.45
2019-02-20T15:32:52.472Z,101687.20
2019-02-20T15:35:21.023Z,101685.55
2019-02-20T15:37:49.760Z,101690.64
2019-02-20T15:40:18.316Z,101690.03
2019-02-20T15:42:46.777Z,101690.50
2019-02-20T15:45:15.307Z,101698.97
2019-02-20T15:47:43.690Z,101693.14
2019-02-20T15:50:15.643Z,101695.31
2019-02-20T15:52:44.012Z,101695.16
2019-02-20T15:55:12.486Z,101694.33
2019-02-20T15:57:41.111Z,101698.16
2019-02-20T16:00:17.087Z,101698.44
2019-02-20T16:02:45.547Z,101704.47
2019-02-20T16:05:14.283Z,101703.48
2019-02-20T16:07:42.718Z,101701.83
2019-02-20T16:10:11.774Z,101710.47
2019-02-20T16:12:40.211Z,101705.13
2019-02-20T16:15:10.336Z,101709.05
2019-02-20T16:17:49.151Z,101715.80
2019-02-20T16:20:15.261Z,101714.14
2019-02-20T16:22:43.658Z,101713.12
2019-02-20T16:25:16.090Z,101727.27
2019-02-20T16:27:47.062Z,101729.34
2019-02-20T16:30:15.278Z,101732.50
2019-02-20T16:32:43.806Z,101729.59
2019-02-20T16:35:12.700Z,101725.45
2019-02-20T16:37:41.237Z,101728.55
2019-02-20T16:40:12.513Z,101736.30
2019-02-20T16:42:40.936Z,101734.19
2019-02-20T16:45:12.489Z,101743.52
2019-02-20T16:47:40.940Z,101739.52
2019-02-20T16:50:09.644Z,101741.77
2019-02-20T16:52:38.161Z,101746.08
2019-02-20T16:55:06.721Z,101745.09
2019-02-20T16:57:35.267Z,101745.45
2019-02-20T17:00:03.981Z,101744.78
2019-02-20T17:02:32.641Z,101751.05
2019-02-20T17:05:01.057Z,101752.31
2019-02-20T17:07:30.106Z,101755.64
2019-02-20T17:09:58.816Z,101760.62
2019-02-20T17:12:27.179Z,101768.26
2019-02-20T17:14:55.704Z,101765.95
2019-02-20T17:17:24.178Z,101760.76
2019-02-20T17:19:52.532Z,101765.11
2019-02-20T17:22:20.941Z,101772.47
2019-02-20T17:24:49.450Z,101775.27
2019-02-20T17:27:18.058Z,101775.77
2019-02-20T17:29:46.553Z,101777.30
2019-02-20T17:32:14.929Z,101777.94
2019-02-20T17:34:43.381Z,101783.13
2019-02-20T17:37:11.966Z,101779.66
2019-02-20T17:39:41.094Z,101788.89
2019-02-20T17:42:09.720Z,101795.72
2019-02-20T17:44:38.247Z,101792.00
2019-02-20T17:47:06.711Z,101791.26
2019-02-20T17:49:35.266Z,101795.95
2019-02-20T17:52:03.885Z,101796.63
2019-02-20T17:54:32.304Z,101792.59
2019-02-20T17:57:00.765Z,101800.02
2019-02-20T17:59:29.143Z,101801.44
2019-02-20T18:01:58.501Z,101797.67
2019-02-20T18:04:27.241Z,101799.64
2019-02-20T18:06:56.004Z,101799.15
2019-02-20T18:09:24.707Z,101804.34
2019-02-20T18:11:53.143Z,101797.67
2019-02-20T18:14:21.608Z,101796.13
2019-02-20T18:16:50.260Z,101799.09
2019-02-20T18:19:18.568Z,101800.13
2019-02-20T18:21:46.972Z,101805.63
2019-02-20T18:24:15.724Z,101797.77
2019-02-20T18:26:44.178Z,101805.27
2019-02-20T18:29:12.558Z,101809.53
2019-02-20T18:31:41.078Z,101812.34
2019-02-20T18:34:09.557Z,101809.40
2019-02-20T18:36:38.228Z,101814.94
2019-02-20T18:39:07.051Z,101814.45
2019-02-20T18:41:35.486Z,101818.32
2019-02-20T18:44:04.234Z,101811.58
2019-02-20T18:46:33.006Z,101819.56
2019-02-20T18:49:01.568Z,101819.84
2019-02-20T18:51:29.997Z,101815.17
2019-02-20T18:53:58.511Z,101816.33
2019-02-20T18:56:27.034Z,101825.66
2019-02-20T18:58:55.440Z,101826.09
2019-02-20T19:01:23.954Z,101830.44
2019-02-20T19:03:52.542Z,101827.69
2019-02-20T19:06:21.194Z,101828.98
2019-02-20T19:08:51.613Z,101835.28
2019-02-20T19:11:35.348Z,101833.67
2019-02-20T19:14:23.061Z,101831.50
2019-02-20T19:17:19.722Z,101836.56
2019-02-20T19:20:15.072Z,101837.75
2019-02-20T19:23:05.761Z,101829.05
2019-02-20T19:25:37.337Z,101834.65
2019-02-20T19:28:23.962Z,101843.97
2019-02-20T19:31:21.029Z,101843.28
2019-02-20T19:34:21.091Z,101845.94
2019-02-20T19:37:14.931Z,101835.78
2019-02-20T19:40:15.113Z,101838.09
2019-02-20T19:43:01.638Z,101841.25
2019-02-20T19:45:33.309Z,101836.98
2019-02-20T19:48:31.840Z,101841.23
2019-02-20T19:51:12.306Z,101838.80
2019-02-20T19:53:43.927Z,101842.08
2019-02-20T19:56:18.345Z,101840.13
2019-02-20T19:59:21.491Z,101843.84
2019-02-20T20:02:08.443Z,101840.04
2019-02-20T20:04:51.634Z,101842.38
2019-02-20T20:07:41.025Z,101845.04
2019-02-20T20:10:27.679Z,101847.25
2019-02-20T20:13:01.947Z,101850.98
2019-02-20T20:15:36.217Z,101847.95
2019-02-20T20:18:23.636Z,101849.70
2019-02-20T20:21:25.121Z,101849.77
2019-02-20T20:24:22.678Z,101848.30
2019-02-20T20:27:20.723Z,101851.90
2019-02-20T20:30:20.784Z,101846.71
2019-02-20T20:33:11.530Z,101840.09
2019-02-20T20:35:59.153Z,101849.22
2019-02-20T20:38:36.344Z,101853.89
2019-02-20T20:41:10.838Z,101844.09
2019-02-20T20:43:45.032Z,101856.42
2019-02-20T20:46:28.717Z,101853.98
2019-02-20T20:49:02.800Z,101849.23
2019-02-20T20:51:53.564Z,101851.25
2019-02-20T20:54:39.898Z,101853.36
2019-02-20T20:57:26.349Z,101852.52
2019-02-20T21:00:00.798Z,101852.52
2019-02-20T21:02:32.337Z,101851.26
2019-02-20T21:05:20.176Z,101850.41
2019-02-20T21:08:03.019Z,101852.78
2019-02-20T21:11:09.015Z,101848.80
2019-02-20T21:13:56.959Z,101848.80
2019-02-20T21:16:43.362Z,101848.02
2019-02-20T21:19:29.662Z,101843.67
2019-02-20T21:22:22.339Z,101846.69
2019-02-20T21:25:15.990Z,101844.29
2019-02-20T21:27:53.236Z,101849.06
2019-02-20T21:30:41.114Z,101846.86
2019-02-20T21:33:33.307Z,101843.91
2019-02-20T21:36:05.311Z,101853.80
2019-02-20T21:38:48.743Z,101847.34
2019-02-20T21:41:23.073Z,101850.30
2019-02-20T21:44:09.330Z,101846.31
2019-02-20T21:46:52.686Z,101844.30
2019-02-20T21:49:29.929Z,101844.20
2019-02-20T21:52:19.384Z,101851.02
2019-02-20T21:55:02.581Z,101847.16
2019-02-20T21:57:49.274Z,101851.92
2019-02-20T22:00:27.838Z,101849.03
2019-02-20T22:03:05.411Z,101848.36
2019-02-20T22:05:59.742Z,101857.30
2019-02-20T22:08:31.275Z,101848.67
2019-02-20T22:11:28.270Z,101856.16
2019-02-20T22:14:11.668Z,101852.69
2019-02-20T22:16:48.762Z,101855.02
2019-02-20T22:19:20.323Z,101854.66
2019-02-20T22:22:11.026Z,101849.38
2019-02-20T22:24:54.535Z,101850.31
2019-02-20T22:27:48.532Z,101856.48
2019-02-20T22:30:31.868Z,101852.08
2019-02-20T22:33:03.567Z,101848.93
2019-02-20T22:35:57.663Z,101856.35
2019-02-20T22:38:29.259Z,101860.05
2019-02-20T22:41:03.604Z,101860.41
2019-02-20T22:43:43.815Z,101867.05
2019-02-20T22:46:15.352Z,101855.99
2019-02-20T22:48:58.855Z,101876.85
2019-02-20T22:51:36.282Z,101871.34
2019-02-20T22:54:11.014Z,101870.98
2019-02-20T22:57:05.893Z,101875.58
2019-02-20T23:00:08.515Z,101875.66
2019-02-20T23:02:48.972Z,101874.42
2019-02-20T23:05:36.656Z,101876.98
2019-02-20T23:08:23.244Z,101872.20
2019-02-20T23:11:15.660Z,101876.55
2019-02-20T23:13:59.099Z,101880.10
2019-02-20T23:16:27.640Z,101883.12
2019-02-20T23:18:56.383Z,101878.84
2019-02-20T23:21:24.843Z,101880.89
2019-02-20T23:23:53.226Z,101887.95
2019-02-20T23:26:21.701Z,101882.63
2019-02-20T23:28:50.120Z,101881.97
2019-02-20T23:31:18.508Z,101885.72
2019-02-20T23:33:47.014Z,101883.86
2019-02-20T23:36:15.492Z,101885.59
2019-02-20T23:38:43.871Z,101887.11
2019-02-20T23:41:12.265Z,101885.29
2019-02-20T23:43:40.658Z,101881.20
2019-02-20T23:46:09.111Z,101881.55
2019-02-20T23:48:37.509Z,101886.88
2019-02-20T23:51:05.946Z,101887.71
2019-02-20T23:53:34.599Z,101888.07
2019-02-20T23:56:02.928Z,101882.58
2019-02-20T23:58:31.375Z,101884.09
